createdAt,value
2023-04-23T00:00:56.175Z,752.0769
2023-04-23T00:01:57.818Z,749.5385
2023-04-23T00:02:59.873Z,749.3846
2023-04-23T00:04:01.474Z,758.0769
2023-04-23T00:05:02.784Z,754.3846
2023-04-23T00:06:04.467Z,748.6923
2023-04-23T00:07:06.013Z,749.8461
2023-04-23T00:08:07.794Z,748.3077
2023-04-23T00:09:09.335Z,745.6923
2023-04-23T00:10:11.007Z,743.7692
2023-04-23T00:11:13.192Z,742.6923
2023-04-23T00:12:14.282Z,739.1539
2023-04-23T00:13:15.909Z,745.7692
2023-04-23T00:14:17.629Z,747.2308
2023-04-23T00:15:19.719Z,738.3846
2023-04-23T00:16:20.887Z,750.5385
2023-04-23T00:17:22.492Z,742.6154
2023-04-23T00:18:24.154Z,746.1539
2023-04-23T00:19:25.828Z,746.8461
2023-04-23T00:20:27.405Z,750.4615
2023-04-23T00:21:29.030Z,755.0769
2023-04-23T00:22:30.737Z,750.0769
2023-04-23T00:23:32.447Z,752.9231
2023-04-23T00:24:34.330Z,745.9231
2023-04-23T00:25:35.590Z,742.4615
2023-04-23T00:26:37.313Z,746.8461
2023-04-23T00:27:38.931Z,746.6923
2023-04-23T00:28:41.340Z,766.0000
2023-04-23T00:29:42.215Z,757.3846
2023-04-23T00:30:43.883Z,751.0769
2023-04-23T00:31:45.485Z,756.3846
2023-04-23T00:32:47.330Z,756.4615
2023-04-23T00:33:48.736Z,756.6154
2023-04-23T00:34:50.770Z,759.6154
2023-04-23T00:35:52.018Z,756.9231
2023-04-23T00:36:53.733Z,757.6923
2023-04-23T00:37:55.290Z,753.7692
2023-04-23T00:38:57.027Z,761.2308
2023-04-23T00:39:58.764Z,749.0769
2023-04-23T00:41:00.353Z,746.3077
2023-04-23T00:42:01.878Z,761.0000
2023-04-23T00:43:03.568Z,767.9231
2023-04-23T00:44:05.325Z,757.4615
2023-04-23T00:45:06.861Z,752.0769
2023-04-23T00:46:09.314Z,774.7692
2023-04-23T00:47:10.072Z,762.7692
2023-04-23T00:48:11.805Z,762.0000
2023-04-23T00:49:14.323Z,760.7692
2023-04-23T00:50:15.163Z,778.0000
2023-04-23T00:51:17.370Z,770.5385
2023-04-23T00:52:18.359Z,761.0769
2023-04-23T00:53:19.982Z,755.0000
2023-04-23T00:54:21.570Z,750.6923
2023-04-23T00:55:23.331Z,754.3846
2023-04-23T00:56:24.960Z,750.6923
2023-04-23T00:57:26.594Z,760.1539
2023-04-23T00:58:28.140Z,761.4615
2023-04-23T00:59:29.817Z,758.3077
2023-04-23T01:00:32.319Z,759.6923
2023-04-23T01:01:33.251Z,753.1539
2023-04-23T01:02:34.812Z,756.5385
2023-04-23T01:03:36.682Z,758.8461
2023-04-23T01:04:38.177Z,760.0769
2023-04-23T01:05:39.853Z,763.0769
2023-04-23T01:06:41.472Z,750.2308
2023-04-23T01:07:43.079Z,754.6923
2023-04-23T01:08:44.727Z,759.0769
2023-04-23T01:09:46.396Z,759.6923
2023-04-23T01:10:48.102Z,763.0000
2023-04-23T01:11:49.755Z,762.6923
2023-04-23T01:12:51.277Z,755.8461
2023-04-23T01:13:52.991Z,761.4615
2023-04-23T01:14:54.538Z,759.3077
2023-04-23T01:15:56.268Z,742.0769
2023-04-23T01:16:58.874Z,742.6154
2023-04-23T01:17:59.593Z,759.6154
2023-04-23T01:19:01.084Z,746.0000
2023-04-23T01:20:02.746Z,747.3846
2023-04-23T01:21:04.467Z,760.6923
2023-04-23T01:22:06.139Z,748.0769
2023-04-23T01:23:07.763Z,758.9231
2023-04-23T01:24:09.367Z,755.3077
2023-04-23T01:25:10.977Z,753.9231
2023-04-23T01:26:13.592Z,767.9231
2023-04-23T01:27:14.341Z,764.2308
2023-04-23T01:28:15.956Z,754.3077
2023-04-23T01:29:17.599Z,767.6154
2023-04-23T01:30:19.232Z,747.9231
2023-04-23T01:31:20.966Z,780.4615
2023-04-23T01:32:22.647Z,806.8461
2023-04-23T01:33:24.118Z,776.5385
2023-04-23T01:34:26.778Z,751.3077
2023-04-23T01:35:27.343Z,758.5385
2023-04-23T01:36:29.359Z,750.7692
2023-04-23T01:37:30.818Z,752.2308
2023-04-23T01:38:33.295Z,779.9231
2023-04-23T01:39:33.996Z,765.2308
2023-04-23T01:40:36.014Z,777.0000
2023-04-23T01:41:37.237Z,759.0769
2023-04-23T01:42:38.944Z,765.9231
2023-04-23T01:43:40.558Z,760.3077
2023-04-23T01:44:42.568Z,761.0000
2023-04-23T01:45:43.914Z,788.3846
2023-04-23T01:46:45.432Z,768.6923
2023-04-23T01:47:47.224Z,757.9231
2023-04-23T01:48:48.762Z,747.3846
2023-04-23T01:49:50.397Z,736.9231
2023-04-23T01:50:52.141Z,755.8461
2023-04-23T01:51:53.672Z,770.5385
2023-04-23T01:52:55.406Z,764.5385
2023-04-23T01:53:56.918Z,763.0000
2023-04-23T01:54:59.038Z,773.1539
2023-04-23T01:56:00.236Z,770.0769
2023-04-23T01:57:01.880Z,760.1539
2023-04-23T01:58:03.505Z,759.3846
2023-04-23T01:59:06.466Z,773.3077
2023-04-23T02:00:06.760Z,793.5385
2023-04-23T02:01:09.492Z,763.3077
2023-04-23T02:02:10.069Z,764.6154
2023-04-23T02:03:11.892Z,738.1539
2023-04-23T02:04:13.380Z,758.3846
2023-04-23T02:05:15.181Z,762.4615
2023-04-23T02:06:16.613Z,757.5385
2023-04-23T02:07:18.286Z,758.3077
2023-04-23T02:08:19.938Z,797.3077
2023-04-23T02:09:22.649Z,763.2308
2023-04-23T02:10:23.163Z,749.6923
2023-04-23T02:11:25.096Z,768.3846
2023-04-23T02:12:26.584Z,770.2308
2023-04-23T02:13:28.514Z,752.7692
2023-04-23T02:14:29.756Z,739.2308
2023-04-23T02:15:31.487Z,751.3077
2023-04-23T02:16:33.136Z,767.6154
2023-04-23T02:17:34.784Z,756.1539
2023-04-23T02:18:36.366Z,770.2308
2023-04-23T02:19:38.083Z,763.3077
2023-04-23T02:20:39.666Z,783.1539
2023-04-23T02:21:41.422Z,768.0000
2023-04-23T02:22:43.882Z,806.5385
2023-04-23T02:23:44.664Z,787.8461
2023-04-23T02:24:46.306Z,778.3846
2023-04-23T02:25:48.004Z,786.6923
2023-04-23T02:26:49.549Z,761.0769
2023-04-23T02:27:51.218Z,751.1539
2023-04-23T02:28:53.010Z,749.1539
2023-04-23T02:29:54.499Z,750.5385
2023-04-23T02:30:56.090Z,752.9231
2023-04-23T02:31:57.930Z,788.6923
2023-04-23T02:32:59.437Z,775.6923
2023-04-23T02:34:01.029Z,774.8461
2023-04-23T02:35:02.645Z,798.8461
2023-04-23T02:36:04.308Z,803.5385
2023-04-23T02:37:06.957Z,766.2308
2023-04-23T02:38:07.521Z,771.3077
2023-04-23T02:39:09.102Z,760.5385
2023-04-23T02:40:10.907Z,753.0000
2023-04-23T02:41:12.928Z,759.6923
2023-04-23T02:42:14.204Z,738.4615
2023-04-23T02:43:15.783Z,741.3077
2023-04-23T02:44:17.426Z,744.0769
2023-04-23T02:45:19.088Z,749.3077
2023-04-23T02:46:20.780Z,790.0000
2023-04-23T02:47:22.447Z,807.0000
2023-04-23T02:48:24.031Z,811.3077
2023-04-23T02:49:25.650Z,800.6154
2023-04-23T02:50:27.305Z,812.0000
2023-04-23T02:51:29.509Z,812.0000
2023-04-23T02:52:30.579Z,809.9231
2023-04-23T02:53:32.217Z,805.4615
2023-04-23T02:54:33.829Z,763.6923
2023-04-23T02:55:35.500Z,749.3846
2023-04-23T02:56:37.144Z,757.1539
2023-04-23T02:57:38.932Z,754.3846
2023-04-23T02:58:40.392Z,759.6923
2023-04-23T02:59:42.118Z,791.2308
2023-04-23T03:00:43.725Z,796.0769
2023-04-23T03:01:45.394Z,781.1539
2023-04-23T03:02:47.126Z,769.3077
2023-04-23T03:03:48.869Z,796.8461
2023-04-23T03:04:50.256Z,810.6923
2023-04-23T03:05:51.926Z,803.3077
2023-04-23T03:06:53.639Z,799.6923
2023-04-23T03:07:55.936Z,772.2308
2023-04-23T03:08:56.812Z,749.6154
2023-04-23T03:09:58.539Z,747.3846
2023-04-23T03:11:00.167Z,756.4615
2023-04-23T03:12:02.486Z,754.6154
2023-04-23T03:13:03.454Z,788.9231
2023-04-23T03:14:05.140Z,798.6923
2023-04-23T03:15:06.706Z,807.8461
2023-04-23T03:16:08.934Z,823.3846
2023-04-23T03:17:10.060Z,772.5385
2023-04-23T03:18:11.716Z,809.4615
2023-04-23T03:19:13.345Z,789.1539
2023-04-23T03:20:15.914Z,783.7692
2023-04-23T03:21:16.557Z,769.0769
2023-04-23T03:22:18.307Z,765.3846
2023-04-23T03:23:19.926Z,755.4615
2023-04-23T03:24:21.559Z,747.4615
2023-04-23T03:25:23.117Z,771.8461
2023-04-23T03:26:24.828Z,785.6154
2023-04-23T03:27:26.481Z,780.9231
2023-04-23T03:28:28.162Z,802.3846
2023-04-23T03:29:29.707Z,806.6154
2023-04-23T03:30:31.381Z,805.0000
2023-04-23T03:31:32.975Z,804.0769
2023-04-23T03:32:34.714Z,783.7692
2023-04-23T03:33:36.341Z,763.0769
2023-04-23T03:34:37.952Z,760.4615
2023-04-23T03:35:39.594Z,742.6154
2023-04-23T03:36:41.204Z,758.2308
2023-04-23T03:37:42.907Z,744.3846
2023-04-23T03:38:44.596Z,747.6154
2023-04-23T03:39:46.147Z,789.5385
2023-04-23T03:40:47.843Z,788.9231
2023-04-23T03:41:49.418Z,777.4615
2023-04-23T03:42:51.169Z,778.3077
2023-04-23T03:43:53.430Z,768.2308
2023-04-23T03:44:54.371Z,777.7692
2023-04-23T03:45:56.104Z,758.9231
2023-04-23T03:46:58.402Z,752.9231
2023-04-23T03:47:59.428Z,759.6923
2023-04-23T03:49:01.454Z,742.0769
2023-04-23T03:50:02.604Z,739.6154
2023-04-23T03:51:04.229Z,762.7692
2023-04-23T03:52:05.908Z,755.0000
2023-04-23T03:53:07.596Z,804.6923
2023-04-23T03:54:09.128Z,822.2308
2023-04-23T03:55:10.787Z,816.3077
2023-04-23T03:56:12.397Z,815.0769
2023-04-23T03:57:14.016Z,824.5385
2023-04-23T03:58:15.700Z,821.1539
2023-04-23T03:59:17.333Z,828.9231
2023-04-23T04:00:19.032Z,854.2308
2023-04-23T04:01:20.594Z,851.5385
2023-04-23T04:02:22.408Z,833.2308
2023-04-23T04:03:25.185Z,824.0000
2023-04-23T04:04:25.832Z,821.0000
2023-04-23T04:05:27.309Z,837.0769
2023-04-23T04:06:28.914Z,855.6923
2023-04-23T04:07:30.464Z,854.8461
2023-04-23T04:08:32.133Z,859.3846
2023-04-23T04:09:33.764Z,857.3077
2023-04-23T04:10:35.932Z,860.6923
2023-04-23T04:11:37.410Z,870.6923
2023-04-23T04:12:38.739Z,874.0000
2023-04-23T04:13:40.370Z,867.7692
2023-04-23T04:14:42.301Z,866.6923
2023-04-23T04:15:44.459Z,883.8461
2023-04-23T04:16:45.368Z,884.6923
2023-04-23T04:17:47.017Z,901.1539
2023-04-23T04:18:48.724Z,892.7692
2023-04-23T04:19:50.606Z,897.3077
2023-04-23T04:20:52.031Z,901.7692
2023-04-23T04:21:53.630Z,922.1539
2023-04-23T04:22:55.295Z,904.6923
2023-04-23T04:23:57.980Z,924.8461
2023-04-23T04:24:58.454Z,932.0769
2023-04-23T04:26:00.203Z,933.7692
2023-04-23T04:27:01.869Z,929.3846
2023-04-23T04:28:03.554Z,942.1539
2023-04-23T04:29:05.126Z,938.7692
2023-04-23T04:30:06.880Z,953.1539
2023-04-23T04:31:08.505Z,950.1539
2023-04-23T04:32:10.098Z,951.7692
2023-04-23T04:33:11.770Z,957.1539
2023-04-23T04:34:13.449Z,969.7692
2023-04-23T04:35:14.968Z,979.6923
2023-04-23T04:36:16.703Z,977.9231
2023-04-23T04:37:18.279Z,975.0000
2023-04-23T04:38:19.960Z,984.3077
2023-04-23T04:39:21.583Z,993.0000
2023-04-23T04:40:23.278Z,983.0000
2023-04-23T04:41:24.920Z,996.2308
2023-04-23T04:42:26.534Z,997.7692
2023-04-23T04:43:28.227Z,992.3846
2023-04-23T04:44:29.796Z,1009.3077
2023-04-23T04:45:31.509Z,1010.9231
2023-04-23T04:46:33.131Z,1013.4615
2023-04-23T04:47:34.776Z,1008.1539
2023-04-23T04:48:37.377Z,1019.2308
2023-04-23T04:49:38.089Z,1018.1539
2023-04-23T04:50:39.680Z,1017.3846
2023-04-23T04:51:41.293Z,1028.3077
2023-04-23T04:52:42.983Z,1029.6923
2023-04-23T04:53:44.589Z,1041.4615
2023-04-23T04:54:46.226Z,1029.0000
2023-04-23T04:55:47.907Z,1050.4615
2023-04-23T04:56:49.627Z,1046.0769
2023-04-23T04:57:52.200Z,1067.2307
2023-04-23T04:58:53.776Z,1049.7693
2023-04-23T04:59:55.350Z,1038.9231
2023-04-23T05:00:56.098Z,1079.6154
2023-04-23T05:01:57.793Z,1069.1538
2023-04-23T05:02:59.535Z,1070.3077
2023-04-23T05:04:01.109Z,1075.7693
2023-04-23T05:05:02.619Z,1078.0000
2023-04-23T05:06:04.302Z,1058.0000
2023-04-23T05:07:05.925Z,1070.3077
2023-04-23T05:08:07.574Z,1081.3846
2023-04-23T05:09:09.173Z,1083.1538
2023-04-23T05:10:10.931Z,1095.6154
2023-04-23T05:11:12.498Z,1080.9231
2023-04-23T05:12:14.238Z,1092.5385
2023-04-23T05:13:15.855Z,1084.1538
2023-04-23T05:14:17.459Z,1072.5385
2023-04-23T05:15:19.108Z,1109.6923
2023-04-23T05:16:20.871Z,1082.8462
2023-04-23T05:17:23.075Z,1093.1538
2023-04-23T05:18:24.120Z,1104.5385
2023-04-23T05:19:25.647Z,1105.2307
2023-04-23T05:20:27.352Z,1085.2307
2023-04-23T05:21:29.022Z,1094.9231
2023-04-23T05:22:30.670Z,1095.3077
2023-04-23T05:23:32.213Z,1091.5385
2023-04-23T05:24:33.948Z,1106.0769
2023-04-23T05:25:35.580Z,1100.1538
2023-04-23T05:26:37.267Z,1111.0000
2023-04-23T05:27:38.893Z,1109.2307
2023-04-23T05:28:40.517Z,1125.2307
2023-04-23T05:29:42.118Z,1121.1538
2023-04-23T05:30:43.804Z,1117.0000
2023-04-23T05:31:45.498Z,1122.1538
2023-04-23T05:32:47.198Z,1126.0000
2023-04-23T05:33:50.504Z,1133.1538
2023-04-23T05:34:50.372Z,1124.6923
2023-04-23T05:35:52.019Z,1136.4615
2023-04-23T05:36:53.772Z,1129.2307
2023-04-23T05:37:55.373Z,1127.1538
2023-04-23T05:38:56.996Z,1147.9231
2023-04-23T05:39:58.577Z,1154.4615
2023-04-23T05:41:00.291Z,1137.8462
2023-04-23T05:42:02.405Z,1145.3846
2023-04-23T05:43:03.579Z,1143.2307
2023-04-23T05:44:05.185Z,1148.9231
2023-04-23T05:45:08.864Z,1144.6923
2023-04-23T05:46:08.512Z,1146.5385
2023-04-23T05:47:10.203Z,1143.0769
2023-04-23T05:48:11.843Z,1151.7693
2023-04-23T05:49:13.468Z,1158.0769
2023-04-23T05:50:15.092Z,1157.3846
2023-04-23T05:51:16.788Z,1153.6154
2023-04-23T05:52:18.434Z,1164.3077
2023-04-23T05:53:20.162Z,1173.6923
2023-04-23T05:54:21.653Z,1159.7693
2023-04-23T05:55:23.338Z,1178.3846
2023-04-23T05:56:25.058Z,1176.5385
2023-04-23T05:57:27.525Z,1185.7693
2023-04-23T05:58:28.346Z,1200.3846
2023-04-23T05:59:29.978Z,1179.2307
2023-04-23T06:00:31.630Z,1196.1538
2023-04-23T06:01:33.205Z,1192.1538
2023-04-23T06:02:35.042Z,1194.7693
2023-04-23T06:03:36.793Z,1196.0000
2023-04-23T06:04:38.361Z,1207.2307
2023-04-23T06:05:39.835Z,1199.5385
2023-04-23T06:06:41.484Z,1211.2307
2023-04-23T06:07:43.180Z,1200.9231
2023-04-23T06:08:45.063Z,1205.3846
2023-04-23T06:09:46.401Z,1211.3077
2023-04-23T06:10:48.108Z,1199.6154
2023-04-23T06:11:49.683Z,1215.4615
2023-04-23T06:12:51.592Z,1216.5385
2023-04-23T06:13:53.060Z,1220.9231
2023-04-23T06:14:54.689Z,1223.8462
2023-04-23T06:15:56.319Z,1222.6923
2023-04-23T06:16:57.981Z,1221.8462
2023-04-23T06:17:59.666Z,1223.0000
2023-04-23T06:19:01.588Z,1216.6923
2023-04-23T06:20:02.904Z,1226.3077
2023-04-23T06:21:04.566Z,1231.1538
2023-04-23T06:22:06.164Z,1226.5385
2023-04-23T06:23:07.866Z,1228.0000
2023-04-23T06:24:09.504Z,1229.8462
2023-04-23T06:25:11.180Z,1218.7693
2023-04-23T06:26:12.722Z,1236.2307
2023-04-23T06:27:14.421Z,1225.8462
2023-04-23T06:28:16.163Z,1241.3846
2023-04-23T06:29:17.758Z,1241.3846
2023-04-23T06:30:19.374Z,1247.0000
2023-04-23T06:31:21.061Z,1251.2307
2023-04-23T06:32:22.630Z,1255.0769
2023-04-23T06:33:24.284Z,1263.9231
2023-04-23T06:34:26.131Z,1261.1538
2023-04-23T06:35:27.635Z,1257.3846
2023-04-23T06:36:29.166Z,1273.1538
2023-04-23T06:37:31.029Z,1267.7693
2023-04-23T06:38:32.428Z,1271.2307
2023-04-23T06:39:34.183Z,1273.4615
2023-04-23T06:40:35.718Z,1277.0000
2023-04-23T06:41:37.337Z,1278.7693
2023-04-23T06:42:40.096Z,1282.4615
2023-04-23T06:43:40.887Z,1275.3846
2023-04-23T06:44:42.675Z,1281.0769
2023-04-23T06:45:44.232Z,1276.0000
2023-04-23T06:46:45.826Z,1277.6154
2023-04-23T06:47:48.212Z,1292.9231
2023-04-23T06:48:48.999Z,1292.6154
2023-04-23T06:49:50.736Z,1296.6923
2023-04-23T06:50:52.379Z,1298.0000
2023-04-23T06:51:56.975Z,1293.3846
2023-04-23T06:52:55.476Z,1305.0000
2023-04-23T06:53:57.193Z,1304.0000
2023-04-23T06:54:59.862Z,1333.1538
2023-04-23T06:56:00.461Z,1324.9231
2023-04-23T06:57:02.179Z,1320.1538
2023-04-23T06:58:03.753Z,1332.8462
2023-04-23T06:59:05.356Z,1169.6154
2023-04-23T07:00:07.109Z,998.3077
2023-04-23T07:01:08.701Z,989.9231
2023-04-23T07:02:10.369Z,1194.4615
2023-04-23T07:03:11.997Z,1166.1538
2023-04-23T07:04:13.669Z,1174.7693
2023-04-23T07:05:15.272Z,1207.0000
2023-04-23T07:06:18.603Z,1204.1538
2023-04-23T07:07:18.508Z,1237.1538
2023-04-23T07:08:20.205Z,1240.0000
2023-04-23T07:09:21.818Z,1249.7693
2023-04-23T07:10:23.560Z,1256.0769
2023-04-23T07:11:25.142Z,1279.0000
2023-04-23T07:12:26.830Z,1299.9231
2023-04-23T07:13:28.442Z,1101.6923
2023-04-23T07:14:30.087Z,978.9231
2023-04-23T07:15:31.845Z,1036.3846
2023-04-23T07:16:33.480Z,1148.8462
2023-04-23T07:17:34.992Z,1170.6154
2023-04-23T07:18:36.657Z,1180.5385
2023-04-23T07:19:38.288Z,1196.3846
2023-04-23T07:20:39.989Z,1208.8462
2023-04-23T07:21:41.578Z,1211.5385
2023-04-23T07:22:43.232Z,1238.1538
2023-04-23T07:23:44.865Z,1237.8462
2023-04-23T07:24:46.522Z,1243.1538
2023-04-23T07:25:48.183Z,1246.0769
2023-04-23T07:26:49.858Z,1027.3077
2023-04-23T07:27:51.401Z,979.0000
2023-04-23T07:28:53.183Z,1139.2307
2023-04-23T07:29:54.704Z,1146.0000
2023-04-23T07:30:56.454Z,1149.9231
2023-04-23T07:31:58.077Z,1151.9231
2023-04-23T07:32:59.718Z,1192.5385
2023-04-23T07:34:01.392Z,1213.0769
2023-04-23T07:35:02.975Z,1242.5385
2023-04-23T07:36:04.598Z,1259.8462
2023-04-23T07:37:06.316Z,1051.4615
2023-04-23T07:38:07.860Z,985.3846
2023-04-23T07:39:09.545Z,957.6923
2023-04-23T07:40:11.189Z,1144.6923
2023-04-23T07:41:12.914Z,1103.7693
2023-04-23T07:42:15.068Z,1130.3077
2023-04-23T07:43:16.142Z,1180.3077
2023-04-23T07:44:17.761Z,1155.1538
2023-04-23T07:45:19.500Z,1179.4615
2023-04-23T07:46:21.146Z,1196.9231
2023-04-23T07:47:23.002Z,1191.0769
2023-04-23T07:48:24.413Z,1168.2307
2023-04-23T07:49:26.021Z,992.3846
2023-04-23T07:50:27.637Z,978.6923
2023-04-23T07:51:29.351Z,1149.9231
2023-04-23T07:52:30.957Z,1155.2307
2023-04-23T07:53:32.577Z,1182.6154
2023-04-23T07:54:34.207Z,1136.9231
2023-04-23T07:55:35.917Z,1184.8462
2023-04-23T07:56:37.597Z,1162.8462
2023-04-23T07:57:39.241Z,1163.1538
2023-04-23T07:58:40.815Z,1163.0769
2023-04-23T07:59:42.863Z,1202.9231
2023-04-23T08:00:44.088Z,1219.6154
2023-04-23T08:01:45.820Z,1209.1538
2023-04-23T08:02:47.614Z,1191.6154
2023-04-23T08:03:49.440Z,1223.0000
2023-04-23T08:04:50.827Z,1198.0000
2023-04-23T08:05:52.336Z,1229.3846
2023-04-23T08:06:54.045Z,1223.4615
2023-04-23T08:07:55.645Z,1228.6154
2023-04-23T08:08:57.308Z,1206.4615
2023-04-23T08:09:58.900Z,1244.0000
2023-04-23T08:11:00.547Z,1258.0000
2023-04-23T08:12:02.236Z,1238.5385
2023-04-23T08:13:03.902Z,1258.6154
2023-04-23T08:14:05.496Z,1253.6154
2023-04-23T08:15:07.220Z,1255.8462
2023-04-23T08:16:08.790Z,1255.0769
2023-04-23T08:17:10.463Z,1283.9231
2023-04-23T08:18:12.107Z,1266.2307
2023-04-23T08:19:13.706Z,1267.8462
2023-04-23T08:20:15.302Z,1271.6923
2023-04-23T08:21:17.031Z,1273.0769
2023-04-23T08:22:20.293Z,1279.2307
2023-04-23T08:23:20.353Z,1269.6923
2023-04-23T08:24:22.456Z,1285.7693
2023-04-23T08:25:23.603Z,1280.0769
2023-04-23T08:26:25.214Z,1273.4615
2023-04-23T08:27:26.971Z,1262.3077
2023-04-23T08:28:28.593Z,1265.1538
2023-04-23T08:29:30.208Z,1285.7693
2023-04-23T08:30:31.789Z,1291.0000
2023-04-23T08:31:33.509Z,1278.9231
2023-04-23T08:32:35.158Z,1288.3846
2023-04-23T08:33:36.875Z,1297.6923
2023-04-23T08:34:38.442Z,1292.3846
2023-04-23T08:35:40.078Z,1295.2307
2023-04-23T08:36:41.649Z,1289.8462
2023-04-23T08:37:43.444Z,1319.3077
2023-04-23T08:38:44.989Z,1305.0769
2023-04-23T08:39:46.686Z,1308.3846
2023-04-23T08:40:48.227Z,1303.3077
2023-04-23T08:41:49.926Z,1304.6154
2023-04-23T08:42:51.644Z,1300.4615
2023-04-23T08:43:53.238Z,1316.8462
2023-04-23T08:44:54.801Z,1327.3846
2023-04-23T08:45:56.510Z,1297.1538
2023-04-23T08:46:58.248Z,1284.5385
2023-04-23T08:48:02.134Z,1302.5385
2023-04-23T08:49:01.452Z,1294.1538
2023-04-23T08:50:03.074Z,1323.3077
2023-04-23T08:51:04.690Z,1312.7693
2023-04-23T08:52:06.380Z,1193.1538
2023-04-23T08:53:08.065Z,980.6154
2023-04-23T08:54:09.679Z,945.7692
2023-04-23T08:55:11.255Z,921.1539
2023-04-23T08:56:12.940Z,827.2308
2023-04-23T08:57:14.574Z,873.7692
2023-04-23T08:58:16.279Z,986.9231
2023-04-23T08:59:17.911Z,935.3077
2023-04-23T09:00:19.455Z,953.0000
2023-04-23T09:01:21.297Z,1001.7692
2023-04-23T09:02:22.986Z,1038.0769
2023-04-23T09:03:24.547Z,1135.8462
2023-04-23T09:04:26.164Z,1098.0769
2023-04-23T09:05:27.710Z,1057.5385
2023-04-23T09:06:29.422Z,1106.2307
2023-04-23T09:07:31.023Z,1179.2307
2023-04-23T09:08:32.753Z,1176.3846
2023-04-23T09:09:34.641Z,1143.8462
2023-04-23T09:10:35.974Z,1238.3077
2023-04-23T09:11:37.577Z,1225.4615
2023-04-23T09:12:39.276Z,1249.0769
2023-04-23T09:13:40.950Z,1190.7693
2023-04-23T09:14:42.852Z,1240.2307
2023-04-23T09:15:44.169Z,1233.6923
2023-04-23T09:16:45.922Z,1284.8462
2023-04-23T09:17:47.529Z,1227.6154
2023-04-23T09:18:49.194Z,1230.8462
2023-04-23T09:19:50.858Z,1238.5385
2023-04-23T09:20:52.528Z,1244.6923
2023-04-23T09:21:54.046Z,1275.7693
2023-04-23T09:22:55.727Z,1228.3077
2023-04-23T09:23:57.449Z,1235.8462
2023-04-23T09:24:59.090Z,1231.8462
2023-04-23T09:26:00.627Z,1243.2307
2023-04-23T09:27:02.267Z,1252.7693
2023-04-23T09:28:03.958Z,1248.0769
2023-04-23T09:29:05.609Z,1254.6923
2023-04-23T09:30:07.294Z,1252.3846
2023-04-23T09:31:08.879Z,1249.0000
2023-04-23T09:32:10.586Z,1241.7693
2023-04-23T09:33:12.151Z,1261.0000
2023-04-23T09:34:14.206Z,1271.6923
2023-04-23T09:35:15.554Z,1272.0000
2023-04-23T09:36:17.233Z,1266.0769
2023-04-23T09:37:18.783Z,1260.3077
2023-04-23T09:38:20.428Z,1277.0000
2023-04-23T09:39:22.065Z,1267.0769
2023-04-23T09:40:23.749Z,1291.6923
2023-04-23T09:41:25.304Z,1300.8462
2023-04-23T09:42:26.986Z,1334.6923
2023-04-23T09:43:28.575Z,1303.5385
2023-04-23T09:44:30.353Z,1314.3846
2023-04-23T09:45:31.945Z,1322.0769
2023-04-23T09:46:33.562Z,1318.2307
2023-04-23T09:47:35.252Z,1327.3077
2023-04-23T09:48:36.879Z,1350.6154
2023-04-23T09:49:38.534Z,1326.9231
2023-04-23T09:50:40.245Z,1348.2307
2023-04-23T09:51:41.769Z,1350.1538
2023-04-23T09:52:43.431Z,1354.7693
2023-04-23T09:53:45.056Z,1208.6154
2023-04-23T09:54:47.214Z,1032.8462
2023-04-23T09:55:48.397Z,969.2308
2023-04-23T09:56:50.076Z,1117.2307
2023-04-23T09:57:51.611Z,1142.9231
2023-04-23T09:58:53.366Z,1128.0000
2023-04-23T10:00:03.754Z,1122.0769
2023-04-23T10:00:56.638Z,1155.8462
2023-04-23T10:01:58.289Z,1170.9231
2023-04-23T10:03:00.168Z,1220.6154
2023-04-23T10:04:01.694Z,1229.3077
2023-04-23T10:05:21.468Z,1245.3846
2023-04-23T10:06:05.264Z,1265.3846
2023-04-23T10:07:17.923Z,1292.7693
2023-04-23T10:08:08.232Z,1323.0000
2023-04-23T10:09:09.704Z,1298.9231
2023-04-23T10:10:11.463Z,1328.6923
2023-04-23T10:11:20.734Z,1318.2307
2023-04-23T10:13:16.302Z,1311.7693
2023-04-23T10:14:17.962Z,1312.6923
2023-04-23T10:15:19.684Z,1340.7693
2023-04-23T10:16:23.284Z,1326.6923
2023-04-23T10:17:22.932Z,1347.9231
2023-04-23T10:18:24.492Z,1248.5385
2023-04-23T10:19:27.171Z,1178.8462
2023-04-23T10:20:27.878Z,1303.7693
2023-04-23T10:21:36.620Z,1262.6154
2023-04-23T10:22:31.067Z,1250.0000
2023-04-23T10:23:32.802Z,1216.2307
2023-04-23T10:24:34.371Z,1153.3846
2023-04-23T10:25:36.729Z,1207.0000
2023-04-23T10:26:38.190Z,1211.3846
2023-04-23T10:27:51.118Z,1289.8462
2023-04-23T10:28:41.042Z,1231.0000
2023-04-23T10:29:43.017Z,1240.6154
2023-04-23T10:30:44.681Z,1279.8462
2023-04-23T10:31:45.980Z,1174.6923
2023-04-23T10:32:47.561Z,1072.0769
2023-04-23T10:33:58.204Z,1163.0769
2023-04-23T10:34:50.931Z,1234.0769
2023-04-23T10:35:52.601Z,1259.1538
2023-04-23T10:36:54.181Z,1176.0769
2023-04-23T10:37:55.844Z,972.7692
2023-04-23T10:38:59.106Z,1078.8462
2023-04-23T10:39:59.132Z,1192.2307
2023-04-23T10:41:00.801Z,1206.5385
2023-04-23T10:42:02.466Z,1255.7693
2023-04-23T10:43:04.026Z,1265.1538
2023-04-23T10:44:05.723Z,1218.0769
2023-04-23T10:45:16.613Z,1120.7693
2023-04-23T10:46:09.139Z,1165.7693
2023-04-23T10:47:10.738Z,1233.0769
2023-04-23T10:48:12.460Z,1174.6923
2023-04-23T10:49:14.016Z,1214.3077
2023-04-23T10:50:15.744Z,1201.0000
2023-04-23T10:51:56.084Z,1240.2307
2023-04-23T10:52:21.495Z,1272.7693
2023-04-23T10:53:20.604Z,1295.0769
2023-04-23T10:54:22.319Z,1138.9231
2023-04-23T10:55:23.969Z,1185.8462
2023-04-23T10:56:25.789Z,1135.1538
2023-04-23T10:57:27.271Z,1185.1538
2023-04-23T10:58:28.943Z,1081.0000
2023-04-23T10:59:30.465Z,1146.9231
2023-04-23T11:00:32.164Z,1065.0000
2023-04-23T11:01:33.827Z,1110.3846
2023-04-23T11:02:35.607Z,1228.6154
2023-04-23T11:03:39.646Z,1238.6154
2023-04-23T11:04:38.834Z,1177.6923
2023-04-23T11:05:40.389Z,1124.6923
2023-04-23T11:06:42.089Z,1161.0769
2023-04-23T11:07:43.750Z,1207.0769
2023-04-23T11:08:45.426Z,1273.6923
2023-04-23T11:09:47.013Z,1258.6923
2023-04-23T11:10:48.667Z,1261.4615
2023-04-23T11:11:50.288Z,1193.8462
2023-04-23T11:12:52.027Z,1052.3846
2023-04-23T11:13:53.621Z,1150.0000
2023-04-23T11:14:55.307Z,1194.2307
2023-04-23T11:15:56.907Z,1200.6923
2023-04-23T11:16:58.530Z,1246.3077
2023-04-23T11:18:00.216Z,1277.0000
2023-04-23T11:19:01.911Z,1083.2307
2023-04-23T11:20:03.558Z,864.0769
2023-04-23T11:21:05.187Z,936.0769
2023-04-23T11:22:06.767Z,874.2308
2023-04-23T11:23:08.462Z,925.8461
2023-04-23T11:24:10.097Z,802.8461
2023-04-23T11:25:11.842Z,895.3846
2023-04-23T11:26:13.424Z,1048.5385
2023-04-23T11:27:15.044Z,850.6154
2023-04-23T11:28:16.694Z,806.9231
2023-04-23T11:29:18.339Z,1013.5385
2023-04-23T11:30:19.962Z,1082.8462
2023-04-23T11:31:21.656Z,936.3077
2023-04-23T11:32:23.298Z,991.8461
2023-04-23T11:33:24.927Z,1078.0769
2023-04-23T11:34:26.604Z,1076.0000
2023-04-23T11:35:28.167Z,988.4615
2023-04-23T11:36:30.699Z,992.7692
2023-04-23T11:37:31.480Z,1005.6154
2023-04-23T11:38:33.056Z,950.0000
2023-04-23T11:39:34.733Z,982.0000
2023-04-23T11:40:36.643Z,872.7692
2023-04-23T11:41:38.087Z,834.3846
2023-04-23T11:42:39.664Z,860.6923
2023-04-23T11:43:42.212Z,930.3077
2023-04-23T11:44:42.972Z,1140.0000
2023-04-23T11:45:44.701Z,1201.3846
2023-04-23T11:46:46.272Z,1014.0000
2023-04-23T11:47:47.962Z,1236.1538
2023-04-23T11:48:49.562Z,1102.9231
2023-04-23T11:49:51.271Z,999.2308
2023-04-23T11:50:53.130Z,1033.7693
2023-04-23T11:51:54.611Z,954.3846
2023-04-23T11:52:56.201Z,941.3077
2023-04-23T11:53:57.906Z,1076.1538